Terminal Aerodrome Forecast
Issued by NWS Northern Indiana

Home | Current Version | Previous Version | Graphics & Text | Print | Product List | Glossary On
Versions: 1 2 3 4 5 6 7 8 9 10 11 12 13
000
FTUS43 KIWX 021100
TAFFWA
TAF
KFWA 021125Z 0212/0312 VRB03KT P6SM BKN250
     FM021500 07009KT P6SM SCT035
     FM030000 06005KT P6SM SKC=

USA.gov is the U.S. government's official web portal to all federal, state and local government web resources and services.